Time;durP1;ratioP1;P1;durP2;ratioP2;P2;SDS_P1;SDS_P2;PMS_P1;PMS_P2;Temp;Humidity;BMP_temperature;BMP_pressure;BME280_temperature;BME280_humidity;BME280_pressure;Samples;Min_cycle;Max_cycle;Signal;HPM_P1;HPM_P2
2023/10/26 00:02:07;;;;;;;;;;;12.80;99.90;;;;;;5118108;27;20696;-80
2023/10/26 00:04:33;;;;;;;;;;;12.90;99.90;;;;;;5119520;27;19983;-79
2023/10/26 00:07:00;;;;;;;;;;;12.80;99.90;;;;;;5121190;27;20490;-80
2023/10/26 00:09:27;;;;;;;;;;;12.90;99.90;;;;;;5119324;27;19971;-76
2023/10/26 00:11:54;;;;;;;;;;;12.80;99.90;;;;;;5117190;27;20092;-81
2023/10/26 00:14:22;;;;;;;;;;;12.90;99.90;;;;;;5116847;27;19986;-80
2023/10/26 00:16:48;;;;;;;;;;;12.80;99.90;;;;;;5126356;27;19994;-79
2023/10/26 00:19:15;;;;;;;;;;;12.80;99.90;;;;;;5122417;27;20032;-80
2023/10/26 00:21:42;;;;;;;;;;;12.80;99.90;;;;;;5118499;27;20056;-81
2023/10/26 00:24:09;;;;;;;;;;;12.80;99.90;;;;;;5117390;27;20409;-82
2023/10/26 00:26:35;;;;;;;;;;;12.90;99.90;;;;;;5121128;27;20555;-82
2023/10/26 00:29:02;;;;;;;;;;;12.80;99.90;;;;;;5117613;27;19990;-80
2023/10/26 00:31:30;;;;;;;;;;;12.80;99.90;;;;;;5118977;27;19997;-80
2023/10/26 00:33:56;;;;;;;;;;;12.80;99.90;;;;;;5123063;27;19978;-81
2023/10/26 00:36:23;;;;;;;;;;;12.90;99.90;;;;;;5121408;27;20021;-81
2023/10/26 00:38:50;;;;;;;;;;;12.80;99.90;;;;;;5119409;27;20344;-80
2023/10/26 00:41:16;;;;;;;;;;;12.80;99.90;;;;;;5121049;27;19978;-79
2023/10/26 00:43:43;;;;;;;;;;;12.80;99.90;;;;;;5121082;27;20081;-79
2023/10/26 00:46:13;;;;;;;;;;;12.80;99.90;;;;;;5115609;27;20085;-79
2023/10/26 00:48:41;;;;;;;;;;;12.80;99.90;;;;;;5103655;27;19982;-80
2023/10/26 00:51:07;;;;;;;;;;;12.80;99.90;;;;;;5116279;27;20065;-80
2023/10/26 00:53:33;;;;;;;;;;;12.80;99.90;;;;;;5114247;27;20001;-80
2023/10/26 00:56:00;;;;;;;;;;;12.80;99.90;;;;;;5116362;27;19998;-80
2023/10/26 00:58:27;;;;;;;;;;;12.80;99.90;;;;;;5117194;27;19975;-80
2023/10/26 01:00:53;;;;;;;;;;;12.80;99.90;;;;;;5119615;27;20051;-80
2023/10/26 01:03:20;;;;;;;;;;;12.80;99.90;;;;;;5120729;27;20648;-80
2023/10/26 01:05:48;;;;;;;;;;;12.80;99.90;;;;;;5112744;27;19975;-80
2023/10/26 01:08:14;;;;;;;;;;;12.80;99.90;;;;;;5117230;27;19981;-80
2023/10/26 01:10:41;;;;;;;;;;;12.80;99.90;;;;;;5121635;27;20013;-80
2023/10/26 01:13:08;;;;;;;;;;;12.80;99.90;;;;;;5113950;27;20409;-81
2023/10/26 01:15:35;;;;;;;;;;;12.80;99.90;;;;;;5117749;27;20804;-80
2023/10/26 01:18:02;;;;;;;;;;;12.80;99.90;;;;;;5122502;27;20168;-80
2023/10/26 01:20:29;;;;;;;;;;;12.80;99.90;;;;;;5120004;27;20466;-80
2023/10/26 01:22:57;;;;;;;;;;;12.80;99.90;;;;;;5119188;27;19997;-80
2023/10/26 01:25:24;;;;;;;;;;;12.80;99.90;;;;;;5115840;27;20010;-81
2023/10/26 01:27:50;;;;;;;;;;;12.80;99.90;;;;;;5114450;27;20937;-82
2023/10/26 01:30:18;;;;;;;;;;;12.80;99.90;;;;;;5118177;27;19982;-86
2023/10/26 01:32:45;;;;;;;;;;;12.80;99.90;;;;;;5119128;27;20446;-84
2023/10/26 01:35:12;;;;;;;;;;;12.80;99.90;;;;;;5120799;27;20363;-84
2023/10/26 01:37:39;;;;;;;;;;;12.70;99.90;;;;;;5121001;27;20359;-87
2023/10/26 01:40:09;;;;;;;;;;;12.70;99.90;;;;;;5120711;27;20415;-84
2023/10/26 01:42:35;;;;;;;;;;;12.70;99.90;;;;;;5126105;27;20049;-86
2023/10/26 01:45:02;;;;;;;;;;;12.70;99.90;;;;;;5127023;27;20089;-84
2023/10/26 01:47:29;;;;;;;;;;;12.70;99.90;;;;;;5122821;27;19997;-84
2023/10/26 01:49:56;;;;;;;;;;;12.70;99.90;;;;;;5121072;27;19986;-85
2023/10/26 01:52:22;;;;;;;;;;;12.70;99.90;;;;;;5119380;27;20105;-89
2023/10/26 01:54:49;;;;;;;;;;;12.70;99.90;;;;;;5119690;27;20518;-87
2023/10/26 01:57:17;;;;;;;;;;;12.70;99.90;;;;;;5120910;27;19987;-87
2023/10/26 01:59:44;;;;;;;;;;;12.70;99.90;;;;;;5121773;27;19975;-85
2023/10/26 02:02:11;;;;;;;;;;;12.70;99.90;;;;;;5123093;27;20009;-88
2023/10/26 02:04:37;;;;;;;;;;;12.70;99.90;;;;;;5118511;27;19983;-86
2023/10/26 02:07:04;;;;;;;;;;;12.70;99.90;;;;;;5125312;27;19978;-84
2023/10/26 02:09:31;;;;;;;;;;;12.70;99.90;;;;;;5123624;27;20632;-85
2023/10/26 02:11:58;;;;;;;;;;;12.70;99.90;;;;;;5121303;27;20007;-86
2023/10/26 02:14:26;;;;;;;;;;;12.70;99.90;;;;;;5120927;27;19990;-85
2023/10/26 02:16:52;;;;;;;;;;;12.70;99.90;;;;;;5119016;27;19998;-85
2023/10/26 02:19:19;;;;;;;;;;;12.70;99.90;;;;;;5122560;27;20044;-85
2023/10/26 02:21:45;;;;;;;;;;;12.70;99.90;;;;;;5120201;27;19991;-86
2023/10/26 02:24:12;;;;;;;;;;;12.70;99.90;;;;;;5122152;27;20036;-86
2023/10/26 02:26:39;;;;;;;;;;;12.70;99.90;;;;;;5121642;27;19974;-86
2023/10/26 02:29:05;;;;;;;;;;;12.70;99.90;;;;;;5124482;27;20065;-85
2023/10/26 02:31:33;;;;;;;;;;;12.70;99.90;;;;;;5120145;27;19991;-88
2023/10/26 02:34:00;;;;;;;;;;;12.70;99.90;;;;;;5121789;27;19974;-88
2023/10/26 02:36:27;;;;;;;;;;;12.70;99.90;;;;;;5129751;27;19974;-86
2023/10/26 02:38:53;;;;;;;;;;;12.70;99.90;;;;;;5121550;27;19978;-86
2023/10/26 02:41:20;;;;;;;;;;;12.70;99.90;;;;;;5116641;27;19974;-84
2023/10/26 02:43:46;;;;;;;;;;;12.70;99.90;;;;;;5118643;27;19998;-85
2023/10/26 02:46:13;;;;;;;;;;;12.70;99.90;;;;;;5117721;27;20463;-85
2023/10/26 02:48:41;;;;;;;;;;;12.70;99.90;;;;;;5117811;27;19989;-86
2023/10/26 02:51:08;;;;;;;;;;;12.60;99.90;;;;;;5121633;27;19974;-86
2023/10/26 02:53:34;;;;;;;;;;;12.60;99.90;;;;;;5127076;27;20583;-86
2023/10/26 02:56:01;;;;;;;;;;;12.60;99.90;;;;;;5120656;27;19975;-86
2023/10/26 02:58:27;;;;;;;;;;;12.60;99.90;;;;;;5114110;27;20029;-85
2023/10/26 03:00:55;;;;;;;;;;;12.70;99.90;;;;;;5116570;27;20074;-85
2023/10/26 03:03:22;;;;;;;;;;;12.60;99.90;;;;;;5122213;27;20711;-86
2023/10/26 03:05:50;;;;;;;;;;;12.60;99.90;;;;;;5122374;27;20649;-85
2023/10/26 03:08:17;;;;;;;;;;;12.70;99.90;;;;;;5119837;27;20427;-87
2023/10/26 03:10:44;;;;;;;;;;;12.60;99.90;;;;;;5123054;27;19975;-88
2023/10/26 03:13:11;;;;;;;;;;;12.60;99.90;;;;;;5120631;27;20081;-83
2023/10/26 03:15:38;;;;;;;;;;;12.60;99.90;;;;;;5119968;27;20002;-86
2023/10/26 03:18:05;;;;;;;;;;;12.60;99.90;;;;;;5111882;27;19998;-84
2023/10/26 03:20:32;;;;;;;;;;;12.60;99.90;;;;;;5116877;27;20716;-84
2023/10/26 03:23:01;;;;;;;;;;;12.60;99.90;;;;;;5120384;27;19999;-84
2023/10/26 03:25:27;;;;;;;;;;;12.60;99.90;;;;;;5107124;28;20085;-87
2023/10/26 03:27:54;;;;;;;;;;;12.60;99.90;;;;;;5123815;27;19986;-87
2023/10/26 03:30:20;;;;;;;;;;;12.60;99.90;;;;;;5117782;27;19975;-86
2023/10/26 03:32:47;;;;;;;;;;;12.60;99.90;;;;;;5119656;27;19994;-85
2023/10/26 03:35:13;;;;;;;;;;;12.60;99.90;;;;;;5120003;27;20055;-86
2023/10/26 03:37:40;;;;;;;;;;;12.60;99.90;;;;;;5117025;27;20073;-85
2023/10/26 03:40:10;;;;;;;;;;;12.60;99.90;;;;;;5123149;27;19999;-84
2023/10/26 03:42:36;;;;;;;;;;;12.60;99.90;;;;;;5123102;28;20000;-87
2023/10/26 03:45:03;;;;;;;;;;;12.60;99.90;;;;;;5119308;27;19985;-85
2023/10/26 03:47:30;;;;;;;;;;;12.60;99.90;;;;;;5124357;27;20470;-85
2023/10/26 03:49:57;;;;;;;;;;;12.50;99.90;;;;;;5115150;28;20039;-89
2023/10/26 03:52:23;;;;;;;;;;;12.60;99.90;;;;;;5125488;28;19994;-85
2023/10/26 03:54:50;;;;;;;;;;;12.60;99.90;;;;;;5122464;27;20061;-84
2023/10/26 03:57:18;;;;;;;;;;;12.60;99.90;;;;;;5121176;27;20490;-84
2023/10/26 03:59:44;;;;;;;;;;;12.50;99.90;;;;;;5120616;27;19975;-86
2023/10/26 04:02:11;;;;;;;;;;;12.60;99.90;;;;;;5113752;27;20010;-85
2023/10/26 04:04:38;;;;;;;;;;;12.50;99.90;;;;;;5111779;27;19982;-86
2023/10/26 04:07:04;;;;;;;;;;;12.50;99.90;;;;;;5109340;27;20397;-89
2023/10/26 04:09:31;;;;;;;;;;;12.50;99.90;;;;;;5112632;27;19974;-90
2023/10/26 04:11:58;;;;;;;;;;;12.60;99.90;;;;;;5111568;27;20064;-89
2023/10/26 04:14:26;;;;;;;;;;;12.60;99.90;;;;;;5115405;27;19985;-90
2023/10/26 04:16:52;;;;;;;;;;;12.50;99.90;;;;;;5118486;27;19998;-88
2023/10/26 04:19:19;;;;;;;;;;;12.50;99.90;;;;;;5122302;27;20241;-88
2023/10/26 04:21:45;;;;;;;;;;;12.50;99.90;;;;;;5115106;27;20526;-87
2023/10/26 04:24:12;;;;;;;;;;;12.50;99.90;;;;;;5113984;27;19986;-87
2023/10/26 04:26:38;;;;;;;;;;;12.60;99.90;;;;;;5114806;27;19978;-86
2023/10/26 04:29:06;;;;;;;;;;;12.50;99.90;;;;;;5124521;27;20667;-85
2023/10/26 04:31:34;;;;;;;;;;;12.50;99.90;;;;;;5123654;27;20001;-87
2023/10/26 04:34:01;;;;;;;;;;;12.50;99.90;;;;;;5124006;27;19974;-84
2023/10/26 04:36:27;;;;;;;;;;;12.50;99.90;;;;;;5119551;27;20368;-82
2023/10/26 04:38:54;;;;;;;;;;;12.50;99.90;;;;;;5121101;27;20297;-84
2023/10/26 04:41:21;;;;;;;;;;;12.50;99.90;;;;;;5117871;27;19995;-88
2023/10/26 04:43:47;;;;;;;;;;;12.50;99.90;;;;;;5117172;27;20633;-84
2023/10/26 04:46:14;;;;;;;;;;;12.50;99.90;;;;;;5118484;27;19995;-84
2023/10/26 04:48:42;;;;;;;;;;;12.50;99.90;;;;;;5112877;27;20400;-86
2023/10/26 04:51:09;;;;;;;;;;;12.40;99.90;;;;;;5117674;27;19986;-85
2023/10/26 04:53:35;;;;;;;;;;;12.50;99.90;;;;;;5113358;27;20487;-80
2023/10/26 04:56:02;;;;;;;;;;;12.40;99.20;;;;;;5111195;27;19974;-83
2023/10/26 04:58:29;;;;;;;;;;;12.40;98.40;;;;;;5122923;27;20001;-83
2023/10/26 05:00:56;;;;;;;;;;;12.30;98.70;;;;;;5124995;27;20006;-82
2023/10/26 05:03:22;;;;;;;;;;;12.30;99.00;;;;;;5117630;27;20113;-84
2023/10/26 05:05:50;;;;;;;;;;;12.40;99.20;;;;;;5124978;27;20396;-82
2023/10/26 05:08:17;;;;;;;;;;;12.30;99.20;;;;;;5109779;27;20032;-82
2023/10/26 05:10:43;;;;;;;;;;;12.30;99.30;;;;;;5116240;27;20361;-82
2023/10/26 05:13:10;;;;;;;;;;;12.40;99.40;;;;;;5112272;27;19995;-81
2023/10/26 05:15:37;;;;;;;;;;;12.40;99.50;;;;;;5111651;27;20141;-83
2023/10/26 05:18:04;;;;;;;;;;;12.30;99.60;;;;;;5111725;27;20526;-82
2023/10/26 05:20:32;;;;;;;;;;;12.30;99.60;;;;;;5120767;27;20014;-82
2023/10/26 05:23:01;;;;;;;;;;;12.40;99.60;;;;;;5096143;27;20043;-82
2023/10/26 05:25:28;;;;;;;;;;;12.40;99.50;;;;;;5117460;27;19975;-83
2023/10/26 05:27:55;;;;;;;;;;;12.30;99.60;;;;;;5115925;27;19983;-82
2023/10/26 05:30:22;;;;;;;;;;;12.30;99.60;;;;;;5110916;27;20419;-84
2023/10/26 05:32:48;;;;;;;;;;;12.40;99.70;;;;;;5113905;27;19999;-83
2023/10/26 05:35:15;;;;;;;;;;;12.30;99.60;;;;;;5113953;27;19985;-82
2023/10/26 05:37:41;;;;;;;;;;;12.30;99.70;;;;;;5118060;27;19990;-82
2023/10/26 05:40:10;;;;;;;;;;;12.30;99.70;;;;;;5109670;27;20092;-84
2023/10/26 05:42:37;;;;;;;;;;;12.30;99.80;;;;;;5110459;27;19990;-82
2023/10/26 05:45:04;;;;;;;;;;;12.30;99.70;;;;;;5115373;27;20060;-82
2023/10/26 05:47:31;;;;;;;;;;;12.30;99.70;;;;;;5116799;27;19997;-82
2023/10/26 05:49:57;;;;;;;;;;;12.30;99.70;;;;;;5111868;27;20567;-83
2023/10/26 05:52:24;;;;;;;;;;;12.30;99.80;;;;;;5112158;27;20043;-83
2023/10/26 05:54:52;;;;;;;;;;;12.30;99.70;;;;;;5112626;27;19981;-84
2023/10/26 05:57:20;;;;;;;;;;;12.30;99.70;;;;;;5110845;27;20365;-83
2023/10/26 05:59:46;;;;;;;;;;;12.30;99.70;;;;;;5119436;27;20334;-83
2023/10/26 06:02:13;;;;;;;;;;;12.30;99.80;;;;;;5112809;27;20431;-83
2023/10/26 06:04:39;;;;;;;;;;;12.30;99.80;;;;;;5119653;27;20013;-83
2023/10/26 06:07:06;;;;;;;;;;;12.30;99.80;;;;;;5108467;27;19982;-83
2023/10/26 06:09:33;;;;;;;;;;;12.30;99.90;;;;;;5115685;27;19979;-83
2023/10/26 06:11:59;;;;;;;;;;;12.30;99.90;;;;;;5115910;27;19998;-83
2023/10/26 06:14:27;;;;;;;;;;;12.30;99.90;;;;;;5118179;27;20164;-86
2023/10/26 06:16:55;;;;;;;;;;;12.30;99.90;;;;;;5110646;27;20002;-86
2023/10/26 06:19:22;;;;;;;;;;;12.30;99.90;;;;;;5115579;27;19991;-83
2023/10/26 06:21:48;;;;;;;;;;;12.20;99.90;;;;;;5107592;27;20038;-84
2023/10/26 06:24:15;;;;;;;;;;;12.30;99.90;;;;;;5116372;27;19985;-84
2023/10/26 06:26:41;;;;;;;;;;;12.20;99.90;;;;;;5111669;27;19988;-85
2023/10/26 06:29:08;;;;;;;;;;;12.30;99.90;;;;;;5114086;27;19989;-84
2023/10/26 06:31:36;;;;;;;;;;;12.30;99.90;;;;;;5110238;27;20660;-84
2023/10/26 06:34:03;;;;;;;;;;;12.20;99.90;;;;;;5115682;27;19999;-84
2023/10/26 06:36:29;;;;;;;;;;;12.20;99.90;;;;;;5112182;27;20308;-83
2023/10/26 06:38:56;;;;;;;;;;;12.20;99.90;;;;;;5113318;27;20517;-83
2023/10/26 06:41:23;;;;;;;;;;;12.20;99.90;;;;;;5112314;27;20027;-84
2023/10/26 06:43:49;;;;;;;;;;;12.20;99.90;;;;;;5113693;27;19997;-84
2023/10/26 06:46:16;;;;;;;;;;;12.20;99.90;;;;;;5113505;27;20152;-83
2023/10/26 06:48:44;;;;;;;;;;;12.20;99.90;;;;;;5112924;27;19978;-84
2023/10/26 06:51:10;;;;;;;;;;;12.20;99.90;;;;;;5117377;27;19986;-85
2023/10/26 06:53:37;;;;;;;;;;;12.20;99.90;;;;;;5110659;27;20607;-84
2023/10/26 06:56:10;;;;;;;;;;;12.20;99.90;;;;;;5113366;27;20093;-85
2023/10/26 06:58:36;;;;;;;;;;;12.20;99.90;;;;;;5114550;27;20469;-86
2023/10/26 07:01:05;;;;;;;;;;;12.20;99.90;;;;;;5115755;27;19998;-84
2023/10/26 07:03:33;;;;;;;;;;;12.20;99.90;;;;;;5109585;27;19994;-84
2023/10/26 07:06:02;;;;;;;;;;;12.20;99.90;;;;;;5113778;27;20118;-84
2023/10/26 07:08:29;;;;;;;;;;;12.20;99.90;;;;;;5110519;27;19975;-84
2023/10/26 07:10:56;;;;;;;;;;;12.20;99.90;;;;;;5120690;27;19985;-86
2023/10/26 07:13:22;;;;;;;;;;;12.20;99.90;;;;;;5111575;27;19994;-84
2023/10/26 07:15:49;;;;;;;;;;;12.20;99.90;;;;;;5120299;27;19990;-83
2023/10/26 07:18:18;;;;;;;;;;;12.20;99.90;;;;;;5119970;27;19995;-84
2023/10/26 07:20:44;;;;;;;;;;;12.10;99.90;;;;;;5114218;27;20024;-84
2023/10/26 07:23:12;;;;;;;;;;;12.10;99.90;;;;;;5118025;27;20002;-84
2023/10/26 07:25:39;;;;;;;;;;;12.20;99.90;;;;;;5120068;27;19982;-83
2023/10/26 07:28:06;;;;;;;;;;;12.10;99.90;;;;;;5114346;27;19975;-84
2023/10/26 07:30:38;;;;;;;;;;;12.20;99.90;;;;;;5117637;27;19990;-84
2023/10/26 07:33:05;;;;;;;;;;;12.20;99.90;;;;;;5120749;27;19994;-85
2023/10/26 07:35:34;;;;;;;;;;;12.20;99.90;;;;;;5119658;27;19992;-84
2023/10/26 07:38:00;;;;;;;;;;;12.20;99.90;;;;;;5118827;27;19978;-85
2023/10/26 07:40:28;;;;;;;;;;;12.20;99.90;;;;;;5118283;27;20084;-84
2023/10/26 07:42:55;;;;;;;;;;;12.10;99.90;;;;;;5111588;27;19998;-84
2023/10/26 07:45:22;;;;;;;;;;;12.20;99.90;;;;;;5115120;27;20029;-84
2023/10/26 07:47:48;;;;;;;;;;;12.20;99.90;;;;;;5112066;27;19985;-85
2023/10/26 07:50:19;;;;;;;;;;;12.20;99.90;;;;;;5118187;27;20021;-84
2023/10/26 07:52:46;;;;;;;;;;;12.10;99.90;;;;;;5118850;27;20089;-86
2023/10/26 07:55:13;;;;;;;;;;;12.20;99.90;;;;;;5113765;27;20310;-85
2023/10/26 07:57:41;;;;;;;;;;;12.20;99.90;;;;;;5118751;27;20200;-84
2023/10/26 08:00:11;;;;;;;;;;;12.10;99.90;;;;;;5116189;27;20013;-84
2023/10/26 08:02:37;;;;;;;;;;;12.10;99.90;;;;;;5113572;27;19994;-85
2023/10/26 08:05:04;;;;;;;;;;;12.20;99.90;;;;;;5116659;27;19990;-87
2023/10/26 08:07:31;;;;;;;;;;;12.20;99.90;;;;;;5117180;27;20430;-84
2023/10/26 08:09:57;;;;;;;;;;;12.20;99.90;;;;;;5113905;27;19982;-86
2023/10/26 08:12:24;;;;;;;;;;;12.20;99.90;;;;;;5121094;27;20420;-85
2023/10/26 08:14:55;;;;;;;;;;;12.20;99.90;;;;;;5114224;27;20187;-85
2023/10/26 08:17:22;;;;;;;;;;;12.20;99.90;;;;;;5119612;27;20074;-84
2023/10/26 08:19:51;;;;;;;;;;;12.20;99.90;;;;;;5119836;27;19998;-85
2023/10/26 08:22:18;;;;;;;;;;;12.20;99.90;;;;;;5117504;27;20113;-84
2023/10/26 08:24:44;;;;;;;;;;;12.20;99.90;;;;;;5119554;27;19986;-85
2023/10/26 08:27:11;;;;;;;;;;;12.20;99.90;;;;;;5120113;27;20218;-84
2023/10/26 08:29:57;;;;;;;;;;;12.20;99.90;;;;;;5115638;27;19974;-85
2023/10/26 08:32:25;;;;;;;;;;;12.20;99.90;;;;;;5117637;27;19999;-86
2023/10/26 08:34:51;;;;;;;;;;;12.20;99.90;;;;;;5117395;27;20435;-84
2023/10/26 08:37:18;;;;;;;;;;;12.20;99.90;;;;;;5116049;27;19984;-86
2023/10/26 08:39:45;;;;;;;;;;;12.20;99.90;;;;;;5116888;27;20479;-85
2023/10/26 08:42:11;;;;;;;;;;;12.20;99.90;;;;;;5114047;27;20668;-84
2023/10/26 08:44:39;;;;;;;;;;;12.30;99.90;;;;;;5103445;27;20062;-85
2023/10/26 08:47:06;;;;;;;;;;;12.30;99.90;;;;;;5110951;27;19995;-85
2023/10/26 08:49:36;;;;;;;;;;;12.30;99.90;;;;;;5120435;27;20000;-86
2023/10/26 08:52:03;;;;;;;;;;;12.20;99.90;;;;;;5118556;27;19998;-85
2023/10/26 08:54:30;;;;;;;;;;;12.30;99.90;;;;;;5117857;27;20415;-85
2023/10/26 08:56:59;;;;;;;;;;;12.30;99.90;;;;;;5111926;27;19978;-84
2023/10/26 08:59:28;;;;;;;;;;;12.30;99.90;;;;;;5115768;27;20040;-87
2023/10/26 09:01:55;;;;;;;;;;;12.30;99.90;;;;;;5111371;27;20434;-82
2023/10/26 09:04:21;;;;;;;;;;;12.30;99.90;;;;;;5119571;27;19982;-82
2023/10/26 09:06:51;;;;;;;;;;;12.30;99.90;;;;;;5109638;27;19975;-84
2023/10/26 09:09:18;;;;;;;;;;;12.30;99.90;;;;;;5120540;27;19983;-82
2023/10/26 09:11:46;;;;;;;;;;;12.30;99.90;;;;;;5115864;27;20343;-82
2023/10/26 09:14:13;;;;;;;;;;;12.30;99.90;;;;;;5118842;27;20264;-82
2023/10/26 09:16:41;;;;;;;;;;;12.30;99.90;;;;;;5114874;27;19990;-81
2023/10/26 09:19:07;;;;;;;;;;;12.30;99.90;;;;;;5116026;27;19998;-81
2023/10/26 09:21:48;;;;;;;;;;;12.30;99.90;;;;;;5114619;27;19985;-82
2023/10/26 09:24:20;;;;;;;;;;;12.30;99.90;;;;;;5123195;27;20425;-82
2023/10/26 09:26:47;;;;;;;;;;;12.30;99.90;;;;;;5106027;27;19979;-82
2023/10/26 09:29:14;;;;;;;;;;;12.30;99.90;;;;;;5116285;27;20082;-81
2023/10/26 09:31:51;;;;;;;;;;;12.30;99.90;;;;;;5120308;27;20037;-82
2023/10/26 09:34:18;;;;;;;;;;;12.30;99.90;;;;;;5116165;27;19982;-81
2023/10/26 09:36:57;;;;;;;;;;;12.30;99.90;;;;;;5116746;27;20127;-81
2023/10/26 09:39:27;;;;;;;;;;;12.30;99.90;;;;;;5123641;27;19994;-82
2023/10/26 09:41:54;;;;;;;;;;;12.30;99.90;;;;;;5127947;27;19995;-82
2023/10/26 09:44:20;;;;;;;;;;;12.30;99.90;;;;;;5119266;27;19978;-83
2023/10/26 09:46:48;;;;;;;;;;;12.30;99.90;;;;;;5117377;27;19998;-83
2023/10/26 09:49:15;;;;;;;;;;;12.30;99.90;;;;;;5115776;27;19985;-83
2023/10/26 09:51:41;;;;;;;;;;;12.30;99.90;;;;;;5116510;27;20350;-83
2023/10/26 09:54:08;;;;;;;;;;;12.20;99.90;;;;;;5116236;27;19978;-83
2023/10/26 09:56:37;;;;;;;;;;;12.30;99.90;;;;;;5116066;27;19974;-82
2023/10/26 09:59:04;;;;;;;;;;;12.30;99.90;;;;;;5115571;27;20065;-83
2023/10/26 10:01:31;;;;;;;;;;;12.30;99.90;;;;;;5110723;27;20003;-83
2023/10/26 10:03:59;;;;;;;;;;;12.30;99.90;;;;;;5121383;27;19982;-83
2023/10/26 10:06:45;;;;;;;;;;;12.30;99.90;;;;;;5108484;27;20080;-83
2023/10/26 10:09:12;;;;;;;;;;;12.30;99.90;;;;;;5112974;27;20619;-85
2023/10/26 10:11:40;;;;;;;;;;;12.30;99.90;;;;;;5119660;27;20029;-83
2023/10/26 10:14:06;;;;;;;;;;;12.30;99.90;;;;;;5119064;27;19990;-83
2023/10/26 10:16:57;;;;;;;;;;;12.30;99.90;;;;;;5113701;27;19998;-84
2023/10/26 10:19:25;;;;;;;;;;;12.30;99.90;;;;;;5102174;27;20518;-86
2023/10/26 10:21:52;;;;;;;;;;;12.30;99.90;;;;;;5123229;27;20042;-84
2023/10/26 10:24:37;;;;;;;;;;;12.30;99.90;;;;;;5115574;27;20060;-83
2023/10/26 10:27:12;;;;;;;;;;;12.30;99.90;;;;;;5112692;27;20486;-85
2023/10/26 10:29:40;;;;;;;;;;;12.30;99.90;;;;;;5115754;27;20389;-85
2023/10/26 10:32:07;;;;;;;;;;;12.30;99.90;;;;;;5113231;27;20002;-83
2023/10/26 10:34:42;;;;;;;;;;;12.30;99.90;;;;;;5117780;27;20352;-86
2023/10/26 10:37:09;;;;;;;;;;;12.30;99.90;;;;;;5113314;27;19986;-85
2023/10/26 10:39:36;;;;;;;;;;;12.40;99.90;;;;;;5118111;27;20089;-84
2023/10/26 10:42:04;;;;;;;;;;;12.40;99.90;;;;;;5114054;27;20089;-86
2023/10/26 10:44:35;;;;;;;;;;;12.40;99.90;;;;;;5115692;27;20447;-87
2023/10/26 10:47:02;;;;;;;;;;;12.40;99.90;;;;;;5114872;27;19999;-84
2023/10/26 10:49:29;;;;;;;;;;;12.40;99.90;;;;;;5117147;27;20470;-86
2023/10/26 10:51:55;;;;;;;;;;;12.40;99.90;;;;;;5106480;27;20010;-85
2023/10/26 10:54:23;;;;;;;;;;;12.40;99.90;;;;;;5107218;27;19979;-83
2023/10/26 10:56:50;;;;;;;;;;;12.40;99.90;;;;;;5109749;27;20359;-86
2023/10/26 10:59:18;;;;;;;;;;;12.40;99.90;;;;;;5107489;27;19987;-87
2023/10/26 11:01:46;;;;;;;;;;;12.40;99.90;;;;;;5108422;27;19999;-84
2023/10/26 11:04:14;;;;;;;;;;;12.40;99.90;;;;;;5110137;27;19989;-82
2023/10/26 11:06:45;;;;;;;;;;;12.40;99.90;;;;;;5115131;27;20492;-82
2023/10/26 11:09:25;;;;;;;;;;;12.40;99.90;;;;;;5112907;27;19983;-81
2023/10/26 11:11:52;;;;;;;;;;;12.40;99.90;;;;;;5110469;27;20097;-84
2023/10/26 11:14:20;;;;;;;;;;;12.40;99.90;;;;;;5112846;27;20060;-83
2023/10/26 11:16:48;;;;;;;;;;;12.40;99.90;;;;;;5111374;27;20016;-85
2023/10/26 11:19:15;;;;;;;;;;;12.40;99.90;;;;;;5113672;27;20039;-83
2023/10/26 11:21:41;;;;;;;;;;;12.40;99.90;;;;;;5115941;27;20065;-83
2023/10/26 11:24:08;;;;;;;;;;;12.40;99.90;;;;;;5115945;27;19978;-84
2023/10/26 11:26:35;;;;;;;;;;;12.50;99.90;;;;;;5110749;27;20478;-86
2023/10/26 11:29:04;;;;;;;;;;;12.50;99.90;;;;;;5108316;27;20004;-83
2023/10/26 11:31:39;;;;;;;;;;;12.40;99.90;;;;;;5117781;27;20361;-83
2023/10/26 11:34:07;;;;;;;;;;;12.50;99.90;;;;;;5116270;27;20354;-85
2023/10/26 11:36:34;;;;;;;;;;;12.50;99.90;;;;;;5116632;27;19978;-83
2023/10/26 11:39:00;;;;;;;;;;;12.50;99.90;;;;;;5112603;27;19979;-84
2023/10/26 11:41:28;;;;;;;;;;;12.50;99.90;;;;;;5115816;27;20043;-86
2023/10/26 11:43:55;;;;;;;;;;;12.50;99.90;;;;;;5116608;27;19986;-83
2023/10/26 11:46:28;;;;;;;;;;;12.50;99.90;;;;;;5109728;27;20010;-83
2023/10/26 11:48:55;;;;;;;;;;;12.50;99.90;;;;;;5116593;27;20013;-84
2023/10/26 11:51:23;;;;;;;;;;;12.50;99.90;;;;;;5117362;27;19982;-83
2023/10/26 11:53:50;;;;;;;;;;;12.50;99.90;;;;;;5115485;27;20006;-84
2023/10/26 11:56:16;;;;;;;;;;;12.60;99.90;;;;;;5120420;27;19982;-84
2023/10/26 11:58:44;;;;;;;;;;;12.60;99.90;;;;;;5112667;28;20561;-83
2023/10/26 12:01:09;;;;;;;;;;;12.60;99.90;;;;;;5114727;27;19994;-83
2023/10/26 12:03:36;;;;;;;;;;;12.60;99.90;;;;;;5119637;27;20657;-84
2023/10/26 12:06:03;;;;;;;;;;;12.60;99.90;;;;;;5113767;27;19983;-83
2023/10/26 12:08:31;;;;;;;;;;;12.60;99.90;;;;;;5115121;27;20017;-83
2023/10/26 12:10:57;;;;;;;;;;;12.60;99.90;;;;;;5115349;27;19978;-84
2023/10/26 12:13:24;;;;;;;;;;;12.60;99.90;;;;;;5114291;27;20002;-83
2023/10/26 12:15:50;;;;;;;;;;;12.70;99.90;;;;;;5116816;27;20494;-83
2023/10/26 12:18:17;;;;;;;;;;;12.70;99.90;;;;;;5117410;27;20731;-83
2023/10/26 12:20:44;;;;;;;;;;;12.70;99.90;;;;;;5113223;27;20001;-83
2023/10/26 12:23:10;;;;;;;;;;;12.70;99.90;;;;;;5119024;27;20002;-83
2023/10/26 12:25:40;;;;;;;;;;;12.70;99.90;;;;;;5112234;27;19979;-84
2023/10/26 12:28:06;;;;;;;;;;;12.70;99.90;;;;;;5116068;27;19974;-83
2023/10/26 12:30:32;;;;;;;;;;;12.70;99.90;;;;;;5111918;27;20001;-83
2023/10/26 12:32:59;;;;;;;;;;;12.70;99.90;;;;;;5108218;27;19991;-83
2023/10/26 12:35:26;;;;;;;;;;;12.70;99.90;;;;;;5116026;27;20055;-83
2023/10/26 12:37:52;;;;;;;;;;;12.80;99.90;;;;;;5120193;27;19982;-82
2023/10/26 12:40:20;;;;;;;;;;;12.70;99.90;;;;;;5119105;27;19994;-84
2023/10/26 12:42:48;;;;;;;;;;;12.80;99.90;;;;;;5120365;27;20659;-83
2023/10/26 12:45:17;;;;;;;;;;;12.80;99.90;;;;;;5118360;27;19982;-82
2023/10/26 12:47:43;;;;;;;;;;;12.80;99.90;;;;;;5123457;27;20194;-82
2023/10/26 12:50:10;;;;;;;;;;;12.80;99.90;;;;;;5122700;27;19979;-82
2023/10/26 12:52:37;;;;;;;;;;;12.90;99.90;;;;;;5121208;27;19994;-82
2023/10/26 12:55:04;;;;;;;;;;;12.80;99.90;;;;;;5122190;27;19983;-82
2023/10/26 12:57:30;;;;;;;;;;;12.90;99.90;;;;;;5123577;27;19981;-82
2023/10/26 12:59:58;;;;;;;;;;;12.90;99.90;;;;;;5114858;27;19998;-82
2023/10/26 13:02:25;;;;;;;;;;;12.90;99.90;;;;;;5123405;27;20002;-82
2023/10/26 13:04:51;;;;;;;;;;;12.90;99.90;;;;;;5121696;27;19986;-82
2023/10/26 13:07:18;;;;;;;;;;;12.90;99.90;;;;;;5127879;27;19986;-81
2023/10/26 13:09:44;;;;;;;;;;;13.00;99.90;;;;;;5115936;27;19982;-82
2023/10/26 13:12:11;;;;;;;;;;;13.00;99.90;;;;;;5122329;27;20628;-83
2023/10/26 13:14:38;;;;;;;;;;;13.00;99.90;;;;;;5115504;27;19990;-82
2023/10/26 13:17:06;;;;;;;;;;;13.00;99.90;;;;;;5112895;27;19998;-82
2023/10/26 13:19:32;;;;;;;;;;;13.10;99.90;;;;;;5118035;27;20105;-82
2023/10/26 13:21:59;;;;;;;;;;;13.10;99.90;;;;;;5116059;27;20009;-82
2023/10/26 13:24:26;;;;;;;;;;;13.10;99.90;;;;;;5120103;27;19994;-82
2023/10/26 13:26:53;;;;;;;;;;;13.10;99.90;;;;;;5118564;27;20013;-81
2023/10/26 13:29:19;;;;;;;;;;;13.10;99.90;;;;;;5119996;27;19978;-82
2023/10/26 13:31:46;;;;;;;;;;;13.20;99.90;;;;;;5117892;27;19998;-81
2023/10/26 13:34:14;;;;;;;;;;;13.20;99.90;;;;;;5123612;27;19986;-81
2023/10/26 13:36:40;;;;;;;;;;;13.20;99.90;;;;;;5118669;27;20057;-82
2023/10/26 13:39:07;;;;;;;;;;;13.20;99.90;;;;;;5118995;27;20208;-82
2023/10/26 13:41:34;;;;;;;;;;;13.20;99.90;;;;;;5120836;27;19990;-81
2023/10/26 13:44:01;;;;;;;;;;;13.20;99.90;;;;;;5116800;27;19979;-82
2023/10/26 13:46:28;;;;;;;;;;;13.30;99.90;;;;;;5118986;27;20002;-82
2023/10/26 13:48:54;;;;;;;;;;;13.30;99.90;;;;;;5120792;27;19978;-81
2023/10/26 13:51:22;;;;;;;;;;;13.30;99.90;;;;;;5123883;27;19986;-81
2023/10/26 13:53:49;;;;;;;;;;;13.30;99.90;;;;;;5120147;27;19991;-81
2023/10/26 13:56:15;;;;;;;;;;;13.30;99.90;;;;;;5118565;27;20027;-81
2023/10/26 13:58:42;;;;;;;;;;;13.40;99.90;;;;;;5119766;27;19981;-81
2023/10/26 14:01:12;;;;;;;;;;;13.40;99.90;;;;;;5112664;27;20009;-82
2023/10/26 14:03:38;;;;;;;;;;;13.40;99.90;;;;;;5117266;27;20006;-82
2023/10/26 14:06:07;;;;;;;;;;;13.40;99.90;;;;;;5121957;27;20621;-81
2023/10/26 14:08:36;;;;;;;;;;;13.40;99.90;;;;;;5116933;27;19982;-81
2023/10/26 14:11:03;;;;;;;;;;;13.40;99.90;;;;;;5121641;27;19982;-81
2023/10/26 14:13:29;;;;;;;;;;;13.40;99.90;;;;;;5118088;27;20005;-81
2023/10/26 14:15:56;;;;;;;;;;;13.50;99.90;;;;;;5112621;27;20001;-82
2023/10/26 14:18:23;;;;;;;;;;;13.50;99.90;;;;;;5121145;27;20064;-82